createdAt,value
2023-05-18T00:02:16.272Z,4.30
2023-05-18T00:04:44.223Z,3.90
2023-05-18T00:07:11.617Z,4.30
2023-05-18T00:09:38.793Z,3.90
2023-05-18T00:12:06.544Z,2.90
2023-05-18T00:14:33.909Z,3.10
2023-05-18T00:17:04.155Z,3.10
2023-05-18T00:19:31.630Z,3.70
2023-05-18T00:21:59.435Z,3.70
2023-05-18T00:24:26.552Z,7.80
2023-05-18T00:26:53.767Z,6.90
2023-05-18T00:29:21.085Z,9.00
2023-05-18T00:31:48.411Z,6.90
2023-05-18T00:34:16.645Z,6.70
2023-05-18T00:36:43.847Z,5.30
2023-05-18T00:39:11.485Z,3.40
2023-05-18T00:41:40.184Z,3.50
2023-05-18T00:44:07.473Z,2.90
2023-05-18T00:46:34.785Z,3.00
2023-05-18T00:49:02.732Z,2.40
2023-05-18T00:51:32.162Z,3.10
2023-05-18T00:54:01.673Z,2.70
2023-05-18T00:56:29.224Z,2.40
2023-05-18T00:58:57.458Z,2.80
2023-05-18T01:01:30.749Z,2.70
2023-05-18T01:04:02.397Z,2.50
2023-05-18T01:06:32.979Z,2.50
2023-05-18T01:09:04.334Z,5.00
2023-05-18T01:11:44.828Z,3.10
2023-05-18T01:14:33.029Z,2.70
2023-05-18T01:17:10.643Z,2.50
2023-05-18T01:19:41.852Z,2.50
2023-05-18T01:22:29.731Z,2.50
2023-05-18T01:25:04.906Z,2.10
2023-05-18T01:27:37.791Z,2.70
2023-05-18T01:30:05.667Z,2.90
2023-05-18T01:32:41.516Z,6.60
2023-05-18T01:35:09.670Z,5.70
2023-05-18T01:37:36.856Z,3.70
2023-05-18T01:40:05.703Z,3.10
2023-05-18T01:42:38.961Z,2.80
2023-05-18T01:45:14.335Z,3.40
2023-05-18T01:47:45.345Z,4.80
2023-05-18T01:50:19.066Z,3.60
2023-05-18T01:52:58.474Z,3.10
2023-05-18T01:55:31.126Z,3.10
2023-05-18T01:58:00.738Z,2.70
2023-05-18T02:00:28.046Z,2.40
2023-05-18T02:02:55.876Z,2.40
2023-05-18T02:05:23.542Z,2.40
2023-05-18T02:07:50.780Z,2.30
2023-05-18T02:10:18.265Z,2.10
2023-05-18T02:12:49.239Z,1.70
2023-05-18T02:15:16.671Z,2.70
2023-05-18T02:17:43.992Z,2.50
2023-05-18T02:20:12.674Z,2.50
2023-05-18T02:22:39.926Z,2.90
2023-05-18T02:25:07.627Z,3.10
2023-05-18T02:27:36.242Z,2.90
2023-05-18T02:30:08.937Z,3.30
2023-05-18T02:32:39.611Z,3.00
2023-05-18T02:35:08.443Z,2.90
2023-05-18T02:37:40.164Z,3.20
2023-05-18T02:40:10.923Z,3.50
2023-05-18T02:42:38.156Z,4.20
2023-05-18T02:45:06.400Z,4.40
2023-05-18T02:47:34.222Z,3.40
2023-05-18T02:50:01.682Z,2.10
2023-05-18T02:52:30.027Z,2.40
2023-05-18T02:54:57.357Z,2.20
2023-05-18T02:57:35.936Z,2.30
2023-05-18T03:00:11.763Z,2.30
2023-05-18T03:02:40.519Z,2.50
2023-05-18T03:05:08.457Z,2.60
2023-05-18T03:07:35.647Z,2.50
2023-05-18T03:10:04.452Z,2.60
2023-05-18T03:12:31.954Z,3.10
2023-05-18T03:14:59.342Z,5.40
2023-05-18T03:17:26.606Z,7.50
2023-05-18T03:19:54.086Z,8.80
2023-05-18T03:22:21.671Z,9.20
2023-05-18T03:24:51.482Z,7.40
2023-05-18T03:27:23.192Z,5.50
2023-05-18T03:29:50.732Z,3.70
2023-05-18T03:32:18.862Z,3.40
2023-05-18T03:34:47.874Z,3.60
2023-05-18T03:37:16.228Z,3.50
2023-05-18T03:39:44.061Z,3.30
2023-05-18T03:42:11.796Z,2.80
2023-05-18T03:44:38.953Z,3.00
2023-05-18T03:47:06.397Z,2.80
2023-05-18T03:49:34.537Z,3.20
2023-05-18T03:52:04.377Z,3.40
2023-05-18T03:54:32.827Z,3.50
2023-05-18T03:57:00.176Z,3.90
2023-05-18T03:59:27.484Z,2.90
2023-05-18T04:01:54.850Z,2.50
2023-05-18T04:04:23.798Z,2.70
2023-05-18T04:06:51.701Z,2.90
2023-05-18T04:09:19.344Z,3.30
2023-05-18T04:11:46.572Z,3.40
2023-05-18T04:14:14.277Z,3.60
2023-05-18T04:16:42.223Z,9.90
2023-05-18T04:19:10.633Z,13.30
2023-05-18T04:21:38.070Z,12.50
2023-05-18T04:24:07.222Z,12.40
2023-05-18T04:26:36.748Z,10.10
2023-05-18T04:29:04.481Z,5.40
2023-05-18T04:31:31.795Z,3.90
2023-05-18T04:34:00.719Z,3.60
2023-05-18T04:36:30.970Z,3.60
2023-05-18T04:39:03.756Z,2.90
2023-05-18T04:41:34.284Z,2.80
2023-05-18T04:44:02.154Z,3.10
2023-05-18T04:46:29.591Z,3.80
2023-05-18T04:48:58.205Z,2.50
2023-05-18T04:51:26.591Z,2.50
2023-05-18T04:53:55.833Z,2.90
2023-05-18T04:56:23.082Z,2.80
2023-05-18T04:58:50.793Z,2.60
2023-05-18T05:01:19.030Z,2.50
2023-05-18T05:03:46.343Z,5.10
2023-05-18T05:06:13.704Z,3.40
2023-05-18T05:08:41.044Z,3.30
2023-05-18T05:11:08.437Z,2.80
2023-05-18T05:13:36.365Z,3.10
2023-05-18T05:16:03.634Z,5.90
2023-05-18T05:18:30.846Z,3.90
2023-05-18T05:20:59.460Z,3.20
2023-05-18T05:23:27.318Z,3.10
2023-05-18T05:25:54.769Z,2.00
2023-05-18T05:28:22.049Z,2.90
2023-05-18T05:30:49.202Z,3.10
2023-05-18T05:33:16.547Z,3.00
2023-05-18T05:35:44.636Z,2.40
2023-05-18T05:38:12.418Z,3.10
2023-05-18T05:40:39.764Z,2.90
2023-05-18T05:43:07.015Z,2.70
2023-05-18T05:45:34.446Z,3.40
2023-05-18T05:48:04.907Z,3.00
2023-05-18T05:50:32.831Z,2.40
2023-05-18T05:53:01.877Z,2.20
2023-05-18T05:55:33.024Z,1.80
2023-05-18T05:58:00.413Z,2.30
2023-05-18T06:00:28.989Z,1.90
2023-05-18T06:03:00.763Z,1.80
2023-05-18T06:05:34.883Z,2.20
2023-05-18T06:08:02.940Z,2.20
2023-05-18T06:10:31.284Z,2.40
2023-05-18T06:12:58.803Z,2.30
2023-05-18T06:15:33.422Z,2.40
2023-05-18T06:18:00.821Z,2.60
2023-05-18T06:20:28.192Z,5.60
2023-05-18T06:22:56.768Z,6.10
2023-05-18T06:25:32.495Z,15.00
2023-05-18T06:28:09.170Z,28.30
2023-05-18T06:30:41.972Z,18.40
2023-05-18T06:33:21.558Z,13.40
2023-05-18T06:35:49.244Z,3.80
2023-05-18T06:38:16.431Z,3.20
2023-05-18T06:40:43.677Z,7.00
2023-05-18T06:43:11.021Z,4.40
2023-05-18T06:45:46.903Z,6.00
2023-05-18T06:48:20.564Z,5.90
2023-05-18T06:50:47.806Z,4.70
2023-05-18T06:53:15.313Z,6.50
2023-05-18T06:55:42.679Z,5.30
2023-05-18T06:58:10.282Z,3.30
2023-05-18T07:00:39.319Z,3.30
2023-05-18T07:03:08.531Z,1.60
2023-05-18T07:05:38.592Z,1.40
2023-05-18T07:08:07.578Z,1.30
2023-05-18T07:10:35.887Z,1.40
2023-05-18T07:13:03.235Z,1.00
2023-05-18T07:15:30.592Z,1.30
2023-05-18T07:17:58.071Z,1.00
2023-05-18T07:20:26.566Z,1.10
2023-05-18T07:22:55.906Z,1.10
2023-05-18T07:25:24.129Z,0.80
2023-05-18T07:27:54.804Z,0.90
2023-05-18T07:30:22.956Z,1.00
2023-05-18T07:32:51.470Z,1.30
2023-05-18T07:35:22.214Z,1.20
2023-05-18T07:37:51.991Z,1.00
2023-05-18T07:40:19.250Z,1.40
2023-05-18T07:42:46.572Z,1.50
2023-05-18T07:45:14.155Z,0.90
2023-05-18T07:47:41.474Z,1.00
2023-05-18T07:50:09.140Z,0.70
2023-05-18T07:52:36.839Z,0.90
2023-05-18T07:55:04.312Z,0.80
2023-05-18T07:57:31.533Z,1.10
2023-05-18T07:59:58.645Z,1.00
2023-05-18T08:02:26.011Z,0.80
2023-05-18T08:04:53.765Z,1.00
2023-05-18T08:07:21.578Z,0.70
2023-05-18T08:09:48.736Z,1.00
2023-05-18T08:12:16.051Z,0.80
2023-05-18T08:14:43.435Z,0.90
2023-05-18T08:17:10.930Z,0.70
2023-05-18T08:19:39.827Z,1.00
2023-05-18T08:22:08.922Z,0.50
2023-05-18T08:24:36.131Z,1.00
2023-05-18T08:27:03.770Z,0.80
2023-05-18T08:29:30.948Z,0.70
2023-05-18T08:31:58.153Z,0.70
2023-05-18T08:34:25.560Z,0.80
2023-05-18T08:36:52.823Z,0.70
2023-05-18T08:39:19.993Z,0.80
2023-05-18T08:41:53.081Z,0.70
2023-05-18T08:44:30.904Z,0.80
2023-05-18T08:46:58.888Z,0.70
2023-05-18T08:49:27.642Z,3.50
2023-05-18T08:51:57.703Z,1.10
2023-05-18T08:54:26.318Z,0.80
2023-05-18T08:56:54.097Z,0.90
2023-05-18T08:59:26.767Z,0.70
2023-05-18T09:01:55.262Z,0.80
2023-05-18T09:04:23.901Z,0.50
2023-05-18T09:06:53.271Z,1.20
2023-05-18T09:09:22.526Z,1.00
2023-05-18T09:11:50.532Z,0.80
2023-05-18T09:14:17.630Z,1.00
2023-05-18T09:16:44.857Z,0.70
2023-05-18T09:19:12.051Z,0.50
2023-05-18T09:21:39.316Z,0.40
2023-05-18T09:24:06.704Z,0.60
2023-05-18T09:26:34.191Z,0.60
2023-05-18T09:29:01.483Z,0.70
2023-05-18T09:31:30.859Z,1.10
2023-05-18T09:33:59.450Z,0.80
2023-05-18T09:36:28.513Z,0.70
2023-05-18T09:38:55.801Z,0.50
2023-05-18T09:41:27.162Z,0.60
2023-05-18T09:43:54.781Z,0.80
2023-05-18T09:46:22.230Z,2.00
2023-05-18T09:48:51.901Z,1.80
2023-05-18T09:51:19.315Z,2.20
2023-05-18T09:53:50.320Z,1.50
2023-05-18T09:56:18.351Z,0.80
2023-05-18T09:58:45.967Z,0.60
2023-05-18T10:01:13.177Z,1.00
2023-05-18T10:03:40.611Z,1.40
2023-05-18T10:06:09.570Z,1.70
2023-05-18T10:08:37.685Z,0.70
2023-05-18T10:11:06.063Z,0.80
2023-05-18T10:13:34.661Z,1.20
2023-05-18T10:16:04.373Z,0.70
2023-05-18T10:18:36.110Z,0.80
2023-05-18T10:21:06.070Z,0.50
2023-05-18T10:23:34.499Z,0.60
2023-05-18T10:26:05.461Z,0.60
2023-05-18T10:28:42.845Z,0.90
2023-05-18T10:31:10.761Z,0.70
2023-05-18T10:33:38.339Z,0.90
2023-05-18T10:36:06.505Z,0.80
2023-05-18T10:38:37.015Z,1.70
2023-05-18T10:41:06.193Z,1.20
2023-05-18T10:43:34.438Z,1.10
2023-05-18T10:46:02.064Z,0.90
2023-05-18T10:48:30.255Z,0.90
2023-05-18T10:50:58.458Z,0.80
2023-05-18T10:53:27.253Z,0.70
2023-05-18T10:55:54.584Z,1.00
2023-05-18T10:58:25.149Z,1.70
2023-05-18T11:00:59.768Z,1.10
2023-05-18T11:03:28.676Z,0.50
2023-05-18T11:06:10.596Z,0.80
2023-05-18T11:08:48.552Z,0.70
2023-05-18T11:11:18.923Z,1.30
2023-05-18T11:13:51.751Z,1.90
2023-05-18T11:16:20.090Z,1.00
2023-05-18T11:18:52.863Z,0.80
2023-05-18T11:21:51.704Z,11.30
2023-05-18T11:24:30.309Z,6.90
2023-05-18T11:26:58.698Z,1.00
2023-05-18T11:29:42.114Z,0.80
2023-05-18T11:32:30.426Z,0.90
2023-05-18T11:34:59.285Z,1.00
2023-05-18T11:37:55.921Z,1.00
2023-05-18T11:40:48.128Z,1.10
2023-05-18T11:43:25.291Z,1.00
2023-05-18T11:45:59.196Z,0.70
2023-05-18T11:48:30.254Z,1.00
2023-05-18T11:50:58.094Z,0.80
2023-05-18T11:53:26.928Z,1.10
2023-05-18T11:55:54.873Z,5.40
2023-05-18T11:58:24.796Z,3.20
2023-05-18T12:00:52.840Z,1.90
2023-05-18T12:03:25.522Z,1.80
2023-05-18T12:05:53.913Z,1.50
2023-05-18T12:08:21.920Z,3.30
2023-05-18T12:10:50.642Z,2.00
2023-05-18T12:13:18.090Z,16.90
2023-05-18T12:15:46.782Z,6.20
2023-05-18T12:18:14.440Z,2.20
2023-05-18T12:20:41.639Z,1.70
2023-05-18T12:23:09.001Z,1.20
2023-05-18T12:25:36.633Z,1.10
2023-05-18T12:28:05.023Z,1.10
2023-05-18T12:30:36.101Z,0.60
2023-05-18T12:33:04.164Z,0.70
2023-05-18T12:35:33.111Z,0.50
2023-05-18T12:38:01.502Z,0.60
2023-05-18T12:40:40.372Z,0.90
2023-05-18T12:43:07.460Z,0.70
2023-05-18T12:45:35.023Z,1.70
2023-05-18T12:48:06.238Z,0.70
2023-05-18T12:50:33.690Z,0.80
2023-05-18T12:53:01.998Z,1.10
2023-05-18T12:55:31.095Z,0.60
2023-05-18T12:58:02.187Z,1.00
2023-05-18T13:00:36.666Z,0.80
2023-05-18T13:03:09.740Z,0.50
2023-05-18T13:05:39.052Z,0.50
2023-05-18T13:08:06.437Z,0.70
2023-05-18T13:10:33.902Z,0.70
2023-05-18T13:13:03.936Z,0.70
2023-05-18T13:15:37.691Z,0.80
2023-05-18T13:18:12.373Z,3.10
2023-05-18T13:20:41.073Z,7.90
2023-05-18T13:23:11.565Z,1.50
2023-05-18T13:25:39.600Z,0.70
2023-05-18T13:28:07.492Z,0.80
2023-05-18T13:30:34.662Z,0.80
2023-05-18T13:33:01.821Z,1.00
2023-05-18T13:35:29.240Z,1.10
2023-05-18T13:37:56.622Z,0.60
2023-05-18T13:40:25.846Z,0.70
2023-05-18T13:42:53.477Z,0.90
2023-05-18T13:45:23.370Z,0.90
2023-05-18T13:47:51.741Z,1.20
2023-05-18T13:50:20.116Z,0.90
2023-05-18T13:52:47.784Z,1.30
2023-05-18T13:55:15.140Z,2.00
2023-05-18T13:57:42.560Z,0.90
2023-05-18T14:00:13.055Z,1.60
2023-05-18T14:02:41.431Z,1.30
2023-05-18T14:05:09.831Z,1.10
2023-05-18T14:07:38.085Z,1.10
2023-05-18T14:10:08.966Z,2.30
2023-05-18T14:12:36.333Z,2.70
2023-05-18T14:15:04.179Z,2.00
2023-05-18T14:17:31.554Z,1.70
2023-05-18T14:19:59.509Z,1.20
2023-05-18T14:22:26.770Z,1.00
2023-05-18T14:24:54.060Z,2.00
2023-05-18T14:27:21.318Z,1.70
2023-05-18T14:29:49.791Z,2.10
2023-05-18T14:32:17.987Z,1.40
2023-05-18T14:34:45.247Z,1.70
2023-05-18T14:37:12.637Z,1.30
2023-05-18T14:39:39.841Z,0.90
2023-05-18T14:42:07.295Z,1.50
2023-05-18T14:44:34.452Z,1.10
2023-05-18T14:47:01.764Z,0.80
2023-05-18T14:49:29.089Z,3.90
2023-05-18T14:51:56.261Z,4.70
2023-05-18T14:54:23.689Z,1.40
2023-05-18T14:56:50.932Z,1.10
2023-05-18T14:59:18.175Z,0.90
2023-05-18T15:01:45.399Z,1.30
2023-05-18T15:04:14.831Z,1.40
2023-05-18T15:06:42.122Z,1.20
2023-05-18T15:09:10.014Z,5.00
2023-05-18T15:11:37.113Z,4.50
2023-05-18T15:14:04.292Z,3.00
2023-05-18T15:16:31.857Z,2.10
2023-05-18T15:18:59.080Z,6.70
2023-05-18T15:21:26.316Z,4.60
2023-05-18T15:23:53.627Z,2.90
2023-05-18T15:26:21.461Z,2.70
2023-05-18T15:28:49.414Z,3.70
2023-05-18T15:31:17.162Z,2.40
2023-05-18T15:33:44.535Z,1.40
2023-05-18T15:36:11.835Z,3.60
2023-05-18T15:38:39.024Z,1.90
2023-05-18T15:41:06.234Z,1.30
2023-05-18T15:43:33.810Z,1.00
2023-05-18T15:46:01.085Z,1.70
2023-05-18T15:48:29.739Z,1.90
2023-05-18T15:50:56.804Z,2.90
2023-05-18T15:53:24.060Z,2.60
2023-05-18T15:55:57.415Z,1.70
2023-05-18T15:58:26.916Z,1.40
2023-05-18T16:00:54.324Z,1.90
2023-05-18T16:03:21.692Z,3.30
2023-05-18T16:05:49.056Z,1.60
2023-05-18T16:08:16.491Z,3.30
2023-05-18T16:10:43.680Z,2.70
2023-05-18T16:13:10.816Z,2.00
2023-05-18T16:15:37.948Z,3.90
2023-05-18T16:18:05.355Z,3.30
2023-05-18T16:20:32.703Z,1.40
2023-05-18T16:23:00.109Z,2.20
2023-05-18T16:25:28.791Z,2.60
2023-05-18T16:27:55.905Z,1.90
2023-05-18T16:30:23.232Z,2.90
2023-05-18T16:32:50.547Z,2.40
2023-05-18T16:35:17.676Z,7.60
2023-05-18T16:37:44.912Z,4.60
2023-05-18T16:40:12.178Z,3.10
2023-05-18T16:42:39.386Z,5.00
2023-05-18T16:45:06.993Z,3.90
2023-05-18T16:47:34.178Z,2.30
2023-05-18T16:50:01.458Z,1.60
2023-05-18T16:52:28.641Z,1.80
2023-05-18T16:54:55.868Z,3.10
2023-05-18T16:57:25.359Z,5.30
2023-05-18T16:59:53.863Z,6.60
2023-05-18T17:02:21.149Z,11.20
2023-05-18T17:04:49.960Z,39.70
2023-05-18T17:07:17.470Z,18.90
2023-05-18T17:09:44.836Z,18.90
2023-05-18T17:12:12.674Z,12.70
2023-05-18T17:14:39.914Z,9.10
2023-05-18T17:17:07.830Z,11.00
2023-05-18T17:19:35.448Z,12.20
2023-05-18T17:22:03.507Z,9.30
2023-05-18T17:24:31.046Z,4.80
2023-05-18T17:26:58.440Z,4.60
2023-05-18T17:29:25.782Z,5.40
2023-05-18T17:31:53.355Z,6.30
2023-05-18T17:34:20.738Z,6.60
2023-05-18T17:36:47.988Z,7.70
2023-05-18T17:39:18.189Z,13.30
2023-05-18T17:41:45.462Z,18.50
2023-05-18T17:44:16.605Z,39.90
2023-05-18T17:46:45.842Z,45.70
2023-05-18T17:49:14.005Z,30.30
2023-05-18T17:51:41.562Z,33.00
2023-05-18T17:54:09.093Z,45.00
2023-05-18T17:56:36.766Z,28.50
2023-05-18T17:59:05.295Z,36.10
2023-05-18T18:01:33.495Z,25.50
2023-05-18T18:04:01.088Z,23.80
2023-05-18T18:06:28.406Z,15.70
2023-05-18T18:08:57.926Z,7.90
2023-05-18T18:11:26.178Z,6.10
2023-05-18T18:13:53.997Z,5.80
2023-05-18T18:16:21.674Z,9.10
2023-05-18T18:18:49.204Z,10.50
2023-05-18T18:21:16.584Z,8.60
2023-05-18T18:23:43.742Z,8.40
2023-05-18T18:26:11.177Z,3.80
2023-05-18T18:28:38.416Z,4.70
2023-05-18T18:31:05.581Z,6.00
2023-05-18T18:33:32.976Z,6.10
2023-05-18T18:36:00.596Z,5.20
2023-05-18T18:38:28.767Z,5.30
2023-05-18T18:41:04.230Z,3.30
2023-05-18T18:45:59.321Z,5.30
2023-05-18T18:48:26.906Z,7.90
2023-05-18T18:50:54.175Z,5.00
2023-05-18T18:53:21.382Z,13.20
2023-05-18T18:55:48.650Z,6.00
2023-05-18T18:58:16.017Z,7.30
2023-05-18T19:00:43.901Z,6.90
2023-05-18T19:03:11.275Z,6.10
2023-05-18T19:05:39.007Z,4.40
2023-05-18T19:08:06.332Z,4.20
2023-05-18T19:10:34.442Z,3.80
2023-05-18T19:13:05.667Z,3.60
2023-05-18T19:15:34.778Z,4.70
2023-05-18T19:18:03.113Z,3.00
2023-05-18T19:20:30.494Z,3.20
2023-05-18T19:22:57.715Z,2.80
2023-05-18T19:25:26.447Z,3.10
2023-05-18T19:27:53.865Z,3.20
2023-05-18T19:30:22.983Z,22.30
2023-05-18T19:32:51.864Z,20.40
2023-05-18T19:35:20.534Z,10.20
2023-05-18T19:37:48.237Z,6.60
2023-05-18T19:40:16.379Z,5.60
2023-05-18T19:42:43.762Z,4.40
2023-05-18T19:45:10.928Z,5.70
2023-05-18T19:47:38.021Z,5.20
2023-05-18T19:50:06.296Z,4.00
2023-05-18T19:52:33.838Z,6.00
2023-05-18T19:55:02.481Z,9.50
2023-05-18T19:57:30.009Z,9.60
2023-05-18T19:59:58.119Z,8.70
2023-05-18T20:02:25.814Z,5.00
2023-05-18T20:04:55.917Z,4.30
2023-05-18T20:07:23.994Z,5.10
2023-05-18T20:09:53.209Z,7.20
2023-05-18T20:12:20.554Z,12.40
2023-05-18T20:14:48.555Z,15.40
2023-05-18T20:17:17.005Z,33.80
2023-05-18T20:19:49.894Z,41.00
2023-05-18T20:22:18.145Z,30.20
2023-05-18T20:24:46.212Z,87.40
2023-05-18T20:27:16.624Z,61.60
2023-05-18T20:29:43.916Z,39.40
2023-05-18T20:32:11.237Z,18.90
2023-05-18T20:34:38.440Z,13.70
2023-05-18T20:37:08.507Z,15.00
2023-05-18T20:39:37.752Z,11.70
2023-05-18T20:42:05.708Z,10.30
2023-05-18T20:44:35.040Z,15.00
2023-05-18T20:47:02.782Z,14.10
2023-05-18T20:49:30.655Z,11.40
2023-05-18T20:51:57.995Z,8.70
2023-05-18T20:54:25.166Z,10.80
2023-05-18T20:56:52.414Z,10.00
2023-05-18T20:59:19.638Z,15.00
2023-05-18T21:01:48.259Z,11.80
2023-05-18T21:04:17.271Z,10.20
2023-05-18T21:06:46.795Z,11.00
2023-05-18T21:09:14.165Z,14.70
2023-05-18T21:11:41.743Z,11.40
2023-05-18T21:14:09.011Z,8.70
2023-05-18T21:16:36.802Z,6.10
2023-05-18T21:19:04.171Z,4.90
2023-05-18T21:21:32.019Z,3.70
2023-05-18T21:23:59.508Z,3.00
2023-05-18T21:26:26.962Z,2.80
2023-05-18T21:28:54.384Z,3.20
2023-05-18T21:31:21.692Z,2.80
2023-05-18T21:33:48.988Z,3.80
2023-05-18T21:36:16.252Z,3.30
2023-05-18T21:38:43.373Z,2.60
2023-05-18T21:41:10.524Z,2.30
2023-05-18T21:43:37.690Z,2.40
2023-05-18T21:46:05.948Z,3.20
2023-05-18T21:48:35.006Z,3.10
2023-05-18T21:51:04.037Z,3.20
2023-05-18T21:53:31.216Z,3.30
2023-05-18T21:55:58.453Z,2.80
2023-05-18T21:58:25.630Z,2.90
2023-05-18T22:00:52.851Z,3.70
2023-05-18T22:03:20.101Z,2.40
2023-05-18T22:05:47.485Z,2.40
2023-05-18T22:08:14.613Z,3.90
2023-05-18T22:10:41.866Z,2.00
2023-05-18T22:13:09.347Z,1.50
2023-05-18T22:15:37.339Z,1.30
2023-05-18T22:18:04.642Z,1.40
2023-05-18T22:20:33.192Z,1.30
2023-05-18T22:23:00.651Z,1.20
2023-05-18T22:25:27.801Z,1.40
2023-05-18T22:27:55.645Z,2.00
2023-05-18T22:30:25.532Z,2.40
2023-05-18T22:32:52.707Z,1.90
2023-05-18T22:35:20.229Z,1.40
2023-05-18T22:37:47.329Z,1.10
2023-05-18T22:40:14.641Z,1.30
2023-05-18T22:42:41.975Z,1.30
2023-05-18T22:45:10.055Z,1.30
2023-05-18T22:47:39.118Z,1.00
2023-05-18T22:50:07.525Z,1.00
2023-05-18T22:52:35.296Z,1.00
2023-05-18T22:55:02.689Z,0.90
2023-05-18T22:57:29.809Z,1.00
2023-05-18T22:59:56.946Z,1.20
2023-05-18T23:02:24.018Z,1.00
2023-05-18T23:04:51.253Z,0.80
2023-05-18T23:07:18.350Z,0.80
2023-05-18T23:09:45.532Z,0.90
2023-05-18T23:12:12.696Z,0.70
2023-05-18T23:14:39.797Z,0.70
2023-05-18T23:17:07.329Z,0.80
2023-05-18T23:19:36.202Z,0.90
2023-05-18T23:22:04.000Z,1.00
2023-05-18T23:24:31.199Z,0.70
2023-05-18T23:26:58.405Z,1.10
2023-05-18T23:29:25.738Z,0.80
2023-05-18T23:31:52.881Z,0.70
2023-05-18T23:34:20.204Z,0.70
2023-05-18T23:36:53.382Z,0.70
2023-05-18T23:39:22.748Z,0.80
2023-05-18T23:41:54.160Z,0.80
2023-05-18T23:44:21.609Z,1.00
2023-05-18T23:46:48.989Z,1.00
2023-05-18T23:49:16.414Z,0.60
2023-05-18T23:51:44.329Z,0.70
2023-05-18T23:54:13.136Z,0.80
2023-05-18T23:56:40.613Z,1.10
2023-05-18T23:59:09.822Z,0.60
